Estaciones Metar próximas

 

LELL - Sabadell, Spain
Distancia a la estación: E 18km
Actualizado: 05/12/2020 05:30
Despejado
Despejado
 Viento del O
Viento: O 2 km/h
Temperatura: 0°C
Rocío: -2°C
Humedad: 87%
Barómetro: 996 hPa
Resumen: Despejado
Visibilidad: greater than 10 km
2020/12/05 04:30 LELL 050430Z AUTO 27001KT CAVOK 00/M02 Q0996
LEBL - Barcelona Airpor, Spain
Distancia a la estación: SSE 33km
Actualizado: 05/12/2020 06:00
Despejado
Despejado
 Viento del NNO
Viento: NNO 17 km/h
Temperatura: 3°C
Sensación Térmica: -1°C
Rocío: -1°C
Humedad: 75%
Barómetro: 996 hPa
Resumen: Despejado
Visibilidad: greater than 10 km
2020/12/05 05:00 LEBL 050500Z 33009KT CAVOK 03/M01 Q0996 NOSIG
LERS - Reus (civ/Mil), Spain
Distancia a la estación: SO 75km
Actualizado: 05/12/2020 06:00
Despejado
Despejado
 Viento del varies
Viento: varies 2 km/h
Temperatura: 2°C
Rocío: -1°C
Humedad: 81%
Barómetro: 996 hPa
Resumen: Despejado
Visibilidad: greater than 10 km
2020/12/05 05:00 LERS 050500Z AUTO VRB01KT CAVOK 02/M01 Q0996
 
LEGE - Gerona/Costa Bra, Spain
Distancia a la estación: ENE 83km
Actualizado: 05/12/2020 06:00
Nubes dispersas
Nubes dispersas
 Viento del NNE
Viento: NNE 6 km/h
Temperatura: 1°C
Rocío: 0°C
Humedad: 93%
Barómetro: 996 hPa
Nubes: Nubes dispersas
Visibilidad: 10 km
Detalle Nubes: Nubes dispersas 1433 m
2020/12/05 05:00 LEGE 050500Z 02003KT 9999 FEW047 01/M00 Q0996
LFMP - Perpignan/Rivesa, France
Distancia a la estación: NNE 155km
Actualizado: 05/12/2020 06:00
Nubes dispersas
Nubes dispersas
 Viento del O
Viento: O 7 km/h
Temperatura: 3°C
Sensación Térmica: 1°C
Rocío: 0°C
Humedad: 81%
Barómetro: 997 hPa
Nubes: Nubes dispersas
Visibilidad: 10 km
Detalle Nubes: Nubes dispersas 2195 m
2020/12/05 05:00 LFMP 050500Z AUTO 26004KT 230V290 9999 FEW072 03/M00 Q0997 NOSIG
LFMK - Carcassonne/Salv, France
Distancia a la estación: N 191km
Actualizado: 05/12/2020 06:00
Cubierto
Cubierto
 Viento del varies
Viento: varies 6 km/h
Temperatura: 1°C
Rocío: 1°C
Humedad: 100%
Barómetro: 997 hPa
Nubes: Cubierto
Visibilidad: 8 km
Detalle Nubes: Parcialmente nuboso 1341 m
Cubierto 1524 m
2020/12/05 05:00 LFMK 050500Z AUTO VRB03KT 8000 SCT044 OVC050 01/01 Q0997 NOSIG
 
LEHC - Huesca-Pirineos, Spain
Distancia a la estación: ONO 193km
Actualizado: 05/12/2020 05:30
Despejado
Despejado
 Viento del O
Viento: O 15 km/h
Temperatura: -1°C
Sensación Térmica: -6°C
Rocío: -2°C
Humedad: 93%
Barómetro: 996 hPa
Resumen: Despejado
Visibilidad: greater than 10 km
2020/12/05 04:30 LEHC 050430Z AUTO 27008KT CAVOK M01/M02 Q0996
LFMU - Beziers/Vias, France
Distancia a la estación: NNE 232km
Actualizado: 05/12/2020 06:00
Despejado
Despejado
 Viento del NO
Viento: NO 9 km/h
Temperatura: 1°C
Sensación Térmica: -2°C
Rocío: 0°C
Humedad: 93%
Barómetro: 997 hPa
Resumen: Despejado
Visibilidad: greater than 10 km
2020/12/05 05:00 LFMU 050500Z AUTO 32005KT CAVOK 01/M00 Q0997 NOSIG
LEPA - Palma De Mallorc, Spain
Distancia a la estación: SSE 233km
Actualizado: 05/12/2020 05:30
Lluvia, Muy nuboso
Lluvia, Muy nuboso
 Viento del N
Viento: N 9 km/h
Temperatura: 9°C
Sensación Térmica: 7°C
Rocío: 8°C
Humedad: 94%
Barómetro: 994 hPa
Resumen: Lluvia
Nubes: Muy nuboso
Visibilidad: 7 km
Detalle Nubes: Nubes dispersas 549 m
Parcialmente nuboso 1128 m
Muy nuboso 1463 m
2020/12/05 04:30 LEPA 050430Z 01005KT 330V060 7000 RA FEW018 SCT037 BKN048 09/08 Q0994 NOSIG
 
LFBO - Toulouse/Blagnac, France
Distancia a la estación: N 236km
Actualizado: 05/12/2020 06:00
Cubierto
Cubierto
 Viento del SSO
Viento: SSO 9 km/h
Temperatura: 3°C
Sensación Térmica: 0°C
Rocío: 2°C
Humedad: 93%
Barómetro: 997 hPa
Nubes: Cubierto
Visibilidad: 10 km
Detalle Nubes: Cubierto 671 m
2020/12/05 05:00 LFBO 050500Z AUTO 20005KT 9999 OVC022 03/02 Q0997 NOSIG
LFBT - Tarbes/Ossun, France
Distancia a la estación: NO 239km
Actualizado: 05/12/2020 06:00
Despejado
Despejado
 Viento del SSO
Viento: SSO 13 km/h
Temperatura: 0°C
Sensación Térmica: -4°C
Rocío: -1°C
Humedad: 93%
Barómetro: 996 hPa
Resumen: Despejado
Visibilidad: greater than 10 km
2020/12/05 05:00 LFBT 050500Z AUTO 20007KT CAVOK 00/M01 Q0996 BECMG 29010KT
LEZG - Zaragoza (mil/Ci, Spain
Distancia a la estación: O 242km
Actualizado: 05/12/2020 06:00
Despejado
Despejado
 Viento del varies
Viento: varies 7 km/h
Temperatura: 1°C
Sensación Térmica: -2°C
Rocío: -1°C
Humedad: 87%
Barómetro: 998 hPa
Resumen: Despejado
Visibilidad: greater than 10 km
2020/12/05 05:00 LEZG 050500Z VRB04KT CAVOK 01/M01 Q0998